createdAt,value
2022-11-01T00:01:40.514Z,14.10
2022-11-01T00:04:07.203Z,14.10
2022-11-01T00:06:33.815Z,14.30
2022-11-01T00:09:00.431Z,14.30
2022-11-01T00:11:27.066Z,14.10
2022-11-01T00:13:53.708Z,13.70
2022-11-01T00:16:20.293Z,13.70
2022-11-01T00:18:46.892Z,13.90
2022-11-01T00:21:13.514Z,13.80
2022-11-01T00:23:40.146Z,14.00
2022-11-01T00:26:06.785Z,13.90
2022-11-01T00:28:33.390Z,13.80
2022-11-01T00:31:00.092Z,14.10
2022-11-01T00:33:26.698Z,14.00
2022-11-01T00:35:53.311Z,14.00
2022-11-01T00:38:19.923Z,14.10
2022-11-01T00:40:46.550Z,13.70
2022-11-01T00:43:13.250Z,13.40
2022-11-01T00:45:39.908Z,13.50
2022-11-01T00:48:06.571Z,13.70
2022-11-01T00:50:33.162Z,13.80
2022-11-01T00:52:59.786Z,13.90
2022-11-01T00:55:26.425Z,14.00
2022-11-01T00:57:53.041Z,14.10
2022-11-01T01:00:19.676Z,14.00
2022-11-01T01:02:46.296Z,14.00
2022-11-01T01:05:13.081Z,13.60
2022-11-01T01:07:39.670Z,13.60
2022-11-01T01:10:06.265Z,13.50
2022-11-01T01:12:32.894Z,13.50
2022-11-01T01:14:59.493Z,13.40
2022-11-01T01:17:28.677Z,13.70
2022-11-01T01:19:57.945Z,14.00
2022-11-01T01:22:24.574Z,14.10
2022-11-01T01:24:51.341Z,14.30
2022-11-01T01:27:17.963Z,14.20
2022-11-01T01:29:44.569Z,14.20
2022-11-01T01:32:11.356Z,14.30
2022-11-01T01:34:37.985Z,14.20
2022-11-01T01:37:04.585Z,14.20
2022-11-01T01:39:31.246Z,14.00
2022-11-01T01:41:57.871Z,14.00
2022-11-01T01:44:24.528Z,14.00
2022-11-01T01:46:51.127Z,13.90
2022-11-01T01:49:17.721Z,13.90
2022-11-01T01:51:44.342Z,13.80
2022-11-01T01:54:10.947Z,13.90
2022-11-01T01:56:37.577Z,13.90
2022-11-01T01:59:04.206Z,13.90
2022-11-01T02:01:30.958Z,14.20
2022-11-01T02:03:57.665Z,14.30
2022-11-01T02:08:55.781Z,14.00
2022-11-01T02:11:22.401Z,13.90
2022-11-01T02:13:49.043Z,14.00
2022-11-01T02:16:15.650Z,14.10
2022-11-01T02:18:42.302Z,14.00
2022-11-01T02:21:08.891Z,14.10
2022-11-01T02:23:35.525Z,14.10
2022-11-01T02:26:02.158Z,14.20
2022-11-01T02:28:28.814Z,14.00
2022-11-01T02:30:55.416Z,13.50
2022-11-01T02:33:22.106Z,13.80
2022-11-01T02:35:48.766Z,14.10
2022-11-01T02:38:15.383Z,14.00
2022-11-01T02:40:41.996Z,14.10
2022-11-01T02:43:08.607Z,14.10
2022-11-01T02:45:35.218Z,13.80
2022-11-01T02:48:01.851Z,13.70
2022-11-01T02:50:28.471Z,13.70
2022-11-01T02:52:55.094Z,13.50
2022-11-01T02:55:21.687Z,13.00
2022-11-01T02:57:48.321Z,13.30
2022-11-01T03:00:14.919Z,13.40
2022-11-01T03:02:41.567Z,13.20
2022-11-01T03:05:08.184Z,13.40
2022-11-01T03:07:34.872Z,13.60
2022-11-01T03:10:01.528Z,13.60
2022-11-01T03:14:55.681Z,13.10
2022-11-01T03:17:22.280Z,13.00
2022-11-01T03:19:48.905Z,13.20
2022-11-01T03:22:15.543Z,13.40
2022-11-01T03:24:42.163Z,13.60
2022-11-01T03:27:08.789Z,13.70
2022-11-01T03:29:35.413Z,13.90
2022-11-01T03:32:01.996Z,13.60
2022-11-01T03:34:28.618Z,13.60
2022-11-01T03:36:56.209Z,13.50
2022-11-01T03:39:22.799Z,12.90
2022-11-01T03:41:49.407Z,12.70
2022-11-01T03:44:16.025Z,13.00
2022-11-01T03:46:42.623Z,13.50
2022-11-01T03:49:09.329Z,13.40
2022-11-01T03:51:35.932Z,13.50
2022-11-01T03:54:02.546Z,13.50
2022-11-01T03:56:29.176Z,13.30
2022-11-01T03:58:55.862Z,13.10
2022-11-01T04:01:22.552Z,13.40
2022-11-01T04:03:49.318Z,13.40
2022-11-01T04:06:15.940Z,13.40
2022-11-01T04:08:42.570Z,13.60
2022-11-01T04:11:09.208Z,13.50
2022-11-01T04:13:35.827Z,13.50
2022-11-01T04:16:02.437Z,13.70
2022-11-01T04:18:29.261Z,13.40
2022-11-01T04:20:55.901Z,13.00
2022-11-01T04:23:22.496Z,12.90
2022-11-01T04:25:49.097Z,13.20
2022-11-01T04:28:15.712Z,13.30
2022-11-01T04:30:42.323Z,13.40
2022-11-01T04:33:08.945Z,13.30
2022-11-01T04:35:35.531Z,13.00
2022-11-01T04:38:02.325Z,12.90
2022-11-01T04:40:29.056Z,13.10
2022-11-01T04:42:55.654Z,13.10
2022-11-01T04:45:22.292Z,12.70
2022-11-01T04:47:48.918Z,12.80
2022-11-01T04:50:15.544Z,13.20
2022-11-01T04:52:42.172Z,13.10
2022-11-01T04:55:08.765Z,12.90
2022-11-01T04:57:35.413Z,13.00
2022-11-01T05:00:02.007Z,12.40
2022-11-01T05:02:28.644Z,12.60
2022-11-01T05:04:55.281Z,12.80
2022-11-01T05:07:21.879Z,13.20
2022-11-01T05:09:48.504Z,13.20
2022-11-01T05:12:15.108Z,13.00
2022-11-01T05:14:41.719Z,13.20
2022-11-01T05:17:08.320Z,13.10
2022-11-01T05:19:34.964Z,13.00
2022-11-01T05:22:01.591Z,12.80
2022-11-01T05:24:28.254Z,13.00
2022-11-01T05:26:54.892Z,12.90
2022-11-01T05:29:32.372Z,12.80
2022-11-01T05:31:59.712Z,12.60
2022-11-01T05:34:26.326Z,12.70
2022-11-01T05:36:52.928Z,12.80
2022-11-01T05:39:19.515Z,12.40
2022-11-01T05:41:46.128Z,12.30
2022-11-01T05:44:12.803Z,12.40
2022-11-01T05:46:39.438Z,12.10
2022-11-01T05:49:06.042Z,12.30
2022-11-01T05:51:32.625Z,12.40
2022-11-01T05:53:59.247Z,12.30
2022-11-01T05:56:25.842Z,12.50
2022-11-01T05:58:52.515Z,12.60
2022-11-01T06:01:19.213Z,12.20
2022-11-01T06:03:45.870Z,12.20
2022-11-01T06:06:12.587Z,12.30
2022-11-01T06:08:39.213Z,12.20
2022-11-01T06:11:05.834Z,12.20
2022-11-01T06:13:32.479Z,11.90
2022-11-01T06:15:59.125Z,12.00
2022-11-01T06:18:25.734Z,12.10
2022-11-01T06:20:52.329Z,12.40
2022-11-01T06:23:18.980Z,12.30
2022-11-01T06:25:45.615Z,12.00
2022-11-01T06:28:12.266Z,11.90
2022-11-01T06:30:38.910Z,11.70
2022-11-01T06:33:05.697Z,11.70
2022-11-01T06:35:32.501Z,11.90
2022-11-01T06:37:59.121Z,11.90
2022-11-01T06:40:25.712Z,12.00
2022-11-01T06:42:52.344Z,12.30
2022-11-01T06:45:18.954Z,12.50
2022-11-01T06:47:45.560Z,12.70
2022-11-01T06:50:12.205Z,12.80
2022-11-01T06:52:38.797Z,12.70
2022-11-01T06:55:05.423Z,12.60
2022-11-01T06:57:32.085Z,12.60
2022-11-01T06:59:58.715Z,12.80
2022-11-01T07:02:29.429Z,12.80
2022-11-01T07:04:56.610Z,12.80
2022-11-01T07:07:23.223Z,13.00
2022-11-01T07:09:49.912Z,12.80
2022-11-01T07:12:16.541Z,12.70
2022-11-01T07:14:43.179Z,12.80
2022-11-01T07:17:09.764Z,12.70
2022-11-01T07:19:36.372Z,12.70
2022-11-01T07:22:03.005Z,12.60
2022-11-01T07:24:29.622Z,12.80
2022-11-01T07:26:56.224Z,12.60
2022-11-01T07:29:22.841Z,12.70
2022-11-01T07:31:49.491Z,12.70
2022-11-01T07:34:16.134Z,12.80
2022-11-01T07:36:42.837Z,12.80
2022-11-01T07:39:09.433Z,12.80
2022-11-01T07:41:36.113Z,13.10
2022-11-01T07:44:02.730Z,13.00
2022-11-01T07:46:29.348Z,12.70
2022-11-01T07:48:56.015Z,12.80
2022-11-01T07:51:22.638Z,13.10
2022-11-01T07:53:49.328Z,13.50
2022-11-01T07:56:15.953Z,13.50
2022-11-01T07:58:42.582Z,13.30
2022-11-01T08:01:09.292Z,13.20
2022-11-01T08:03:35.967Z,13.30
2022-11-01T08:06:02.647Z,13.50
2022-11-01T08:08:29.232Z,13.70
2022-11-01T08:10:55.847Z,13.60
2022-11-01T08:13:22.433Z,13.60
2022-11-01T08:15:49.027Z,14.00
2022-11-01T08:18:15.651Z,13.90
2022-11-01T08:20:42.259Z,14.10
2022-11-01T08:23:08.880Z,14.40
2022-11-01T08:25:35.590Z,14.30
2022-11-01T08:28:02.177Z,14.40
2022-11-01T08:30:28.794Z,14.80
2022-11-01T08:32:55.404Z,14.40
2022-11-01T08:35:22.004Z,14.30
2022-11-01T08:37:48.659Z,14.60
2022-11-01T08:40:15.259Z,14.70
2022-11-01T08:42:41.881Z,15.00
2022-11-01T08:45:08.476Z,14.80
2022-11-01T08:47:35.063Z,14.90
2022-11-01T08:50:01.678Z,15.00
2022-11-01T08:52:28.279Z,15.10
2022-11-01T08:54:54.912Z,15.10
2022-11-01T08:57:21.565Z,14.70
2022-11-01T08:59:48.219Z,14.90
2022-11-01T09:02:14.953Z,15.20
2022-11-01T09:04:41.621Z,15.20
2022-11-01T09:07:08.321Z,15.40
2022-11-01T09:09:36.843Z,15.20
2022-11-01T09:12:03.458Z,15.40
2022-11-01T09:14:30.064Z,15.40
2022-11-01T09:16:56.709Z,15.10
2022-11-01T09:19:23.851Z,15.70
2022-11-01T09:21:50.531Z,15.40
2022-11-01T09:24:17.149Z,15.70
2022-11-01T09:26:43.794Z,16.10
2022-11-01T09:29:10.386Z,16.20
2022-11-01T09:31:36.993Z,15.90
2022-11-01T09:34:03.615Z,16.10
2022-11-01T09:36:30.201Z,15.90
2022-11-01T09:38:56.830Z,15.90
2022-11-01T09:41:23.476Z,15.70
2022-11-01T09:43:50.078Z,15.60
2022-11-01T09:46:16.770Z,15.90
2022-11-01T09:48:43.473Z,15.80
2022-11-01T09:51:10.061Z,15.90
2022-11-01T09:53:36.677Z,15.90
2022-11-01T09:56:03.320Z,15.60
2022-11-01T09:58:29.976Z,15.60
2022-11-01T10:00:56.600Z,15.90
2022-11-01T10:03:23.287Z,15.70
2022-11-01T10:06:23.808Z,16.00
2022-11-01T10:08:50.448Z,16.40
2022-11-01T10:11:17.075Z,16.50
2022-11-01T10:13:43.722Z,16.30
2022-11-01T10:16:10.321Z,16.20
2022-11-01T10:18:36.917Z,16.20
2022-11-01T10:21:03.596Z,16.00
2022-11-01T10:23:30.315Z,16.20
2022-11-01T10:25:56.935Z,16.60
2022-11-01T10:28:23.565Z,16.70
2022-11-01T10:30:50.242Z,16.90
2022-11-01T10:33:16.886Z,17.10
2022-11-01T10:35:43.556Z,17.20
2022-11-01T10:38:25.036Z,17.40
2022-11-01T10:40:57.086Z,17.60
2022-11-01T10:43:23.704Z,17.30
2022-11-01T10:45:50.291Z,17.80
2022-11-01T10:48:16.908Z,18.30
2022-11-01T10:50:43.499Z,18.00
2022-11-01T10:53:10.172Z,18.30
2022-11-01T10:55:36.874Z,18.40
2022-11-01T10:58:03.812Z,18.50
2022-11-01T11:00:30.723Z,18.80
2022-11-01T11:02:57.374Z,19.40
2022-11-01T11:05:23.985Z,19.50
2022-11-01T11:07:50.596Z,19.60
2022-11-01T11:10:19.664Z,19.60
2022-11-01T11:12:49.527Z,19.70
2022-11-01T11:15:16.179Z,20.00
2022-11-01T11:17:42.779Z,19.80
2022-11-01T11:20:09.403Z,19.20
2022-11-01T11:22:36.029Z,19.60
2022-11-01T11:25:02.637Z,19.80
2022-11-01T11:27:29.344Z,20.10
2022-11-01T11:29:55.929Z,20.10
2022-11-01T11:32:22.784Z,20.00
2022-11-01T11:34:49.431Z,20.00
2022-11-01T11:37:16.027Z,20.40
2022-11-01T11:39:42.650Z,20.40
2022-11-01T11:42:09.239Z,20.70
2022-11-01T11:44:35.891Z,20.40
2022-11-01T11:47:02.496Z,20.80
2022-11-01T11:49:29.111Z,20.70
2022-11-01T11:51:55.703Z,20.80
2022-11-01T11:54:22.317Z,20.80
2022-11-01T11:56:48.908Z,20.80
2022-11-01T11:59:15.508Z,20.70
2022-11-01T12:01:42.208Z,20.50
2022-11-01T12:04:08.874Z,20.40
2022-11-01T12:06:35.554Z,20.60
2022-11-01T12:09:02.147Z,20.70
2022-11-01T12:11:28.765Z,20.90
2022-11-01T12:13:55.362Z,21.10
2022-11-01T12:16:22.004Z,21.30
2022-11-01T12:18:48.658Z,21.20
2022-11-01T12:21:15.259Z,21.10
2022-11-01T12:23:41.862Z,21.40
2022-11-01T12:26:11.337Z,21.30
2022-11-01T12:28:40.619Z,21.10
2022-11-01T12:31:07.223Z,21.00
2022-11-01T12:33:33.866Z,21.30
2022-11-01T12:36:00.453Z,21.40
2022-11-01T12:38:27.129Z,21.30
2022-11-01T12:40:53.743Z,21.60
2022-11-01T12:43:20.450Z,21.70
2022-11-01T12:45:47.069Z,21.90
2022-11-01T12:48:13.686Z,21.90
2022-11-01T12:50:40.273Z,21.80
2022-11-01T12:53:06.900Z,22.10
2022-11-01T12:55:33.551Z,22.40
2022-11-01T12:58:00.209Z,22.20
2022-11-01T13:00:26.846Z,22.30
2022-11-01T13:02:53.433Z,22.40
2022-11-01T13:05:20.045Z,22.50
2022-11-01T13:07:46.663Z,22.50
2022-11-01T13:10:13.278Z,22.00
2022-11-01T13:12:40.032Z,22.10
2022-11-01T13:15:06.625Z,22.20
2022-11-01T13:17:33.240Z,22.10
2022-11-01T13:19:59.821Z,22.20
2022-11-01T13:22:26.438Z,22.30
2022-11-01T13:24:53.033Z,22.10
2022-11-01T13:27:19.666Z,22.10
2022-11-01T13:29:48.895Z,22.10
2022-11-01T13:32:18.518Z,22.30
2022-11-01T13:34:45.114Z,22.20
2022-11-01T13:37:11.734Z,22.10
2022-11-01T13:39:38.378Z,22.00
2022-11-01T13:42:04.980Z,21.80
2022-11-01T13:44:31.618Z,21.90
2022-11-01T13:46:58.214Z,21.60
2022-11-01T13:49:24.859Z,21.60
2022-11-01T13:51:51.541Z,21.80
2022-11-01T13:54:18.179Z,22.00
2022-11-01T13:56:44.801Z,21.90
2022-11-01T13:59:11.409Z,22.10
2022-11-01T14:01:38.140Z,22.20
2022-11-01T14:04:04.846Z,22.10
2022-11-01T14:06:31.493Z,22.10
2022-11-01T14:08:58.083Z,21.70
2022-11-01T14:11:24.708Z,21.40
2022-11-01T14:13:51.305Z,21.50
2022-11-01T14:16:17.929Z,21.70
2022-11-01T14:18:44.543Z,21.50
2022-11-01T14:21:11.170Z,20.60
2022-11-01T14:23:37.779Z,20.40
2022-11-01T14:26:04.417Z,20.50
2022-11-01T14:28:31.046Z,20.50
2022-11-01T14:30:57.689Z,20.30
2022-11-01T14:33:24.298Z,20.10
2022-11-01T14:35:50.905Z,19.90
2022-11-01T14:38:17.498Z,20.00
2022-11-01T14:40:44.136Z,19.90
2022-11-01T14:43:10.763Z,19.70
2022-11-01T14:45:37.394Z,19.90
2022-11-01T14:48:04.322Z,20.00
2022-11-01T14:50:31.273Z,20.10
2022-11-01T14:52:57.911Z,20.10
2022-11-01T14:55:24.872Z,20.30
2022-11-01T14:57:51.513Z,20.40
2022-11-01T15:00:18.113Z,20.40
2022-11-01T15:02:44.802Z,20.50
2022-11-01T15:05:11.532Z,20.40
2022-11-01T15:07:38.155Z,20.30
2022-11-01T15:10:04.782Z,20.10
2022-11-01T15:12:31.429Z,20.10
2022-11-01T15:14:58.043Z,20.00
2022-11-01T15:17:24.643Z,19.80
2022-11-01T15:19:51.272Z,19.90
2022-11-01T15:22:17.932Z,19.90
2022-11-01T15:24:44.528Z,19.70
2022-11-01T15:27:11.174Z,19.60
2022-11-01T15:29:37.766Z,19.50
2022-11-01T15:32:04.394Z,19.30
2022-11-01T15:34:31.004Z,19.20
2022-11-01T15:36:57.641Z,19.00
2022-11-01T15:39:24.258Z,18.90
2022-11-01T15:41:50.887Z,19.10
2022-11-01T15:44:17.513Z,19.20
2022-11-01T15:46:44.106Z,19.20
2022-11-01T15:49:10.727Z,18.80
2022-11-01T15:51:37.351Z,18.70
2022-11-01T15:54:03.976Z,18.90
2022-11-01T15:56:30.603Z,18.90
2022-11-01T15:58:57.200Z,19.00
2022-11-01T16:01:24.005Z,18.60
2022-11-01T16:03:50.719Z,18.30
2022-11-01T16:06:17.314Z,18.10
2022-11-01T16:08:43.940Z,17.40
2022-11-01T16:11:10.570Z,16.90
2022-11-01T16:13:37.164Z,16.60
2022-11-01T16:16:03.825Z,16.50
2022-11-01T16:18:30.443Z,16.60
2022-11-01T16:20:57.082Z,16.90
2022-11-01T16:23:23.689Z,17.10
2022-11-01T16:25:50.331Z,17.30
2022-11-01T16:28:16.941Z,17.40
2022-11-01T16:30:43.562Z,17.20
2022-11-01T16:33:10.167Z,17.10
2022-11-01T16:35:36.793Z,17.30
2022-11-01T16:38:03.706Z,17.60
2022-11-01T16:40:30.514Z,17.80
2022-11-01T16:42:57.110Z,17.80
2022-11-01T16:45:23.722Z,17.50
2022-11-01T16:47:53.184Z,17.70
2022-11-01T16:50:22.235Z,17.70
2022-11-01T16:52:48.844Z,17.80
2022-11-01T16:55:15.467Z,17.90
2022-11-01T16:57:42.094Z,17.80
2022-11-01T17:00:08.715Z,17.60
2022-11-01T17:02:35.369Z,17.40
2022-11-01T17:05:02.004Z,17.00
2022-11-01T17:07:28.651Z,17.40
2022-11-01T17:09:55.241Z,17.70
2022-11-01T17:12:21.844Z,17.50
2022-11-01T17:14:48.462Z,17.20
2022-11-01T17:17:15.083Z,17.20
2022-11-01T17:19:41.710Z,17.30
2022-11-01T17:22:08.307Z,17.30
2022-11-01T17:24:34.945Z,17.00
2022-11-01T17:27:01.536Z,17.00
2022-11-01T17:29:28.140Z,16.80
2022-11-01T17:31:54.853Z,17.00
2022-11-01T17:34:21.476Z,17.20
2022-11-01T17:36:48.146Z,17.00
2022-11-01T17:39:14.774Z,17.30
2022-11-01T17:41:41.393Z,17.20
2022-11-01T17:44:08.008Z,17.10
2022-11-01T17:46:34.637Z,17.20
2022-11-01T17:49:01.235Z,17.20
2022-11-01T17:51:27.832Z,17.50
2022-11-01T17:53:54.521Z,17.70
2022-11-01T17:56:21.150Z,17.40
2022-11-01T17:58:51.198Z,17.40
2022-11-01T18:01:18.954Z,17.50
2022-11-01T18:03:45.654Z,17.30
2022-11-01T18:06:12.273Z,17.10
2022-11-01T18:08:38.885Z,17.30
2022-11-01T18:11:05.534Z,17.40
2022-11-01T18:13:32.123Z,17.30
2022-11-01T18:15:58.799Z,17.10
2022-11-01T18:18:25.591Z,17.10
2022-11-01T18:20:52.212Z,17.30
2022-11-01T18:23:18.804Z,17.30
2022-11-01T18:25:45.449Z,16.80
2022-11-01T18:28:12.054Z,16.70
2022-11-01T18:30:38.874Z,16.70
2022-11-01T18:33:05.529Z,17.00
2022-11-01T18:35:32.584Z,17.00
2022-11-01T18:37:59.550Z,16.70
2022-11-01T18:40:26.259Z,16.60
2022-11-01T18:42:52.882Z,16.60
2022-11-01T18:45:19.500Z,16.80
2022-11-01T18:47:46.112Z,17.00
2022-11-01T18:50:16.245Z,17.20
2022-11-01T18:52:43.222Z,17.30
2022-11-01T18:55:09.876Z,17.30
2022-11-01T18:57:36.519Z,17.30
2022-11-01T19:00:03.214Z,17.20
2022-11-01T19:02:31.309Z,17.20
2022-11-01T19:04:58.087Z,17.10
2022-11-01T19:07:24.723Z,17.00
2022-11-01T19:09:51.340Z,16.90
2022-11-01T19:12:18.032Z,16.70
2022-11-01T19:14:44.683Z,16.80
2022-11-01T19:17:11.320Z,17.00
2022-11-01T19:19:37.940Z,17.00
2022-11-01T19:22:04.611Z,16.80
2022-11-01T19:24:31.228Z,16.70
2022-11-01T19:26:57.872Z,16.10
2022-11-01T19:29:24.491Z,16.00
2022-11-01T19:31:51.254Z,16.40
2022-11-01T19:34:17.868Z,16.10
2022-11-01T19:36:44.543Z,16.00
2022-11-01T19:39:11.309Z,16.00
2022-11-01T19:41:38.373Z,16.20
2022-11-01T19:44:05.011Z,16.20
2022-11-01T19:46:31.665Z,16.10
2022-11-01T19:48:58.301Z,15.90
2022-11-01T19:51:24.908Z,16.30
2022-11-01T19:53:51.534Z,16.40
2022-11-01T19:56:20.455Z,16.40
2022-11-01T19:58:47.083Z,16.40
2022-11-01T20:01:13.882Z,16.60
2022-11-01T20:03:40.582Z,16.60
2022-11-01T20:06:07.210Z,16.60
2022-11-01T20:08:33.835Z,16.40
2022-11-01T20:11:00.473Z,16.50
2022-11-01T20:13:27.124Z,16.60
2022-11-01T20:15:53.853Z,16.70
2022-11-01T20:18:20.468Z,16.80
2022-11-01T20:20:47.125Z,16.70
2022-11-01T20:23:25.813Z,16.80
2022-11-01T20:25:53.547Z,16.80
2022-11-01T20:28:20.210Z,16.80
2022-11-01T20:30:46.852Z,16.90
2022-11-01T20:33:13.501Z,16.90
2022-11-01T20:38:24.194Z,17.00
2022-11-01T20:40:50.800Z,17.00
2022-11-01T20:43:17.386Z,16.80
2022-11-01T20:45:44.057Z,16.30
2022-11-01T20:48:10.671Z,16.10
2022-11-01T20:50:37.267Z,16.30
2022-11-01T20:53:04.222Z,16.70
2022-11-01T20:55:31.163Z,16.70
2022-11-01T20:57:57.801Z,16.50
2022-11-01T21:00:24.423Z,16.50
2022-11-01T21:02:51.124Z,16.50
2022-11-01T21:05:17.729Z,15.90
2022-11-01T21:07:47.775Z,16.30
2022-11-01T21:10:14.917Z,16.60
2022-11-01T21:12:41.515Z,16.50
2022-11-01T21:15:08.183Z,16.40
2022-11-01T21:17:34.788Z,16.60
2022-11-01T21:20:01.452Z,16.50
2022-11-01T21:22:28.098Z,16.70
2022-11-01T21:24:55.735Z,16.70
2022-11-01T21:27:22.405Z,16.70
2022-11-01T21:29:49.092Z,16.10
2022-11-01T21:32:15.718Z,16.00
2022-11-01T21:34:42.419Z,16.40
2022-11-01T21:37:09.026Z,16.30
2022-11-01T21:39:35.658Z,16.30
2022-11-01T21:42:02.261Z,16.50
2022-11-01T21:44:28.890Z,16.60
2022-11-01T21:46:55.539Z,16.50
2022-11-01T21:49:22.179Z,16.10
2022-11-01T21:51:48.792Z,16.10
2022-11-01T21:54:15.449Z,16.30
2022-11-01T21:56:42.059Z,16.20
2022-11-01T21:59:08.727Z,15.70
2022-11-01T22:01:35.499Z,15.80
2022-11-01T22:04:02.158Z,16.20
2022-11-01T22:06:28.801Z,15.90
2022-11-01T22:08:55.411Z,15.90
2022-11-01T22:11:23.867Z,15.50
2022-11-01T22:13:50.527Z,15.90
2022-11-01T22:16:17.118Z,16.10
2022-11-01T22:18:43.734Z,16.20
2022-11-01T22:21:10.397Z,16.20
2022-11-01T22:23:36.982Z,16.40
2022-11-01T22:26:03.584Z,16.00
2022-11-01T22:28:30.223Z,15.70
2022-11-01T22:30:56.851Z,16.00
2022-11-01T22:33:23.478Z,16.30
2022-11-01T22:35:50.060Z,16.40
2022-11-01T22:38:16.677Z,16.40
2022-11-01T22:40:43.276Z,16.40
2022-11-01T22:43:09.900Z,16.30
2022-11-01T22:45:36.519Z,16.00
2022-11-01T22:48:03.159Z,15.90
2022-11-01T22:50:29.749Z,16.20
2022-11-01T22:55:40.378Z,16.50
2022-11-01T22:58:06.992Z,16.40
2022-11-01T23:00:33.740Z,16.30
2022-11-01T23:03:00.585Z,16.40
2022-11-01T23:05:27.393Z,16.40
2022-11-01T23:07:53.992Z,16.40
2022-11-01T23:10:20.619Z,16.40
2022-11-01T23:12:47.217Z,16.40
2022-11-01T23:15:13.881Z,16.40
2022-11-01T23:17:40.466Z,16.40
2022-11-01T23:20:07.081Z,16.10
2022-11-01T23:22:33.681Z,16.10
2022-11-01T23:25:00.301Z,16.20
2022-11-01T23:27:26.880Z,16.30
2022-11-01T23:29:53.506Z,16.30
2022-11-01T23:32:20.124Z,16.20
2022-11-01T23:34:46.739Z,16.00
2022-11-01T23:37:13.377Z,16.10
2022-11-01T23:39:39.960Z,16.20
2022-11-01T23:42:06.572Z,16.10
2022-11-01T23:44:33.236Z,16.20
2022-11-01T23:46:59.835Z,16.00
2022-11-01T23:49:26.459Z,15.80
2022-11-01T23:51:53.047Z,15.90
2022-11-01T23:54:19.716Z,15.90
2022-11-01T23:56:46.344Z,16.00
2022-11-01T23:59:12.926Z,16.20
